createdAt,value
2016-05-18T00:01:25.511Z,0
2016-05-18T00:02:11.359Z,0
2016-05-18T00:03:11.377Z,0
2016-05-18T00:04:11.224Z,0
2016-05-18T00:05:25.602Z,0
2016-05-18T00:06:11.275Z,0
2016-05-18T00:07:25.638Z,0
2016-05-18T00:08:11.624Z,0
2016-05-18T00:09:11.346Z,0
2016-05-18T00:11:11.555Z,0
2016-05-18T00:12:25.776Z,0
2016-05-18T00:13:11.607Z,0
2016-05-18T00:14:11.610Z,0
2016-05-18T00:15:11.487Z,0
2016-05-18T00:16:25.849Z,0
2016-05-18T00:17:11.680Z,0
2016-05-18T00:18:11.543Z,0
2016-05-18T00:19:11.732Z,0
2016-05-18T00:20:11.767Z,0
2016-05-18T00:21:25.972Z,0
2016-05-18T00:23:12.259Z,0
2016-05-18T00:24:11.855Z,0
2016-05-18T00:25:26.046Z,0
2016-05-18T00:26:25.923Z,0
2016-05-18T00:27:11.894Z,0
2016-05-18T00:28:26.116Z,0
2016-05-18T00:29:40.322Z,0
2016-05-18T00:31:11.983Z,0
2016-05-18T00:32:12.018Z,0
2016-05-18T00:33:12.036Z,0
2016-05-18T00:34:11.897Z,0
2016-05-18T00:35:26.260Z,0
2016-05-18T00:36:26.138Z,0
2016-05-18T00:37:12.124Z,0
2016-05-18T00:38:12.503Z,0
2016-05-18T00:39:26.364Z,0
2016-05-18T00:40:26.382Z,0
2016-05-18T00:41:26.402Z,0
2016-05-18T00:42:12.247Z,0
2016-05-18T00:43:12.109Z,0
2016-05-18T00:44:12.144Z,0
2016-05-18T00:45:12.302Z,0
2016-05-18T00:46:12.180Z,0
2016-05-18T00:47:12.245Z,0
2016-05-18T00:48:12.060Z,0
2016-05-18T00:49:26.578Z,0
2016-05-18T00:50:26.457Z,0
2016-05-18T00:51:12.443Z,0
2016-05-18T00:52:12.462Z,0
2016-05-18T00:53:12.293Z,0
2016-05-18T00:54:12.498Z,0
2016-05-18T00:55:12.532Z,0
2016-05-18T00:56:12.394Z,0
2016-05-18T00:57:12.584Z,0
2016-05-18T00:58:12.587Z,0
2016-05-18T00:59:12.622Z,0
2016-05-18T01:00:12.514Z,0
2016-05-18T01:01:12.658Z,0
2016-05-18T01:02:12.380Z,0
2016-05-18T01:03:12.397Z,0
2016-05-18T01:04:12.431Z,0
2016-05-18T01:05:12.763Z,0
2016-05-18T01:06:26.953Z,0
2016-05-18T01:07:12.799Z,0
2016-05-18T01:08:26.989Z,0
2016-05-18T01:09:12.680Z,0
2016-05-18T01:10:12.854Z,0
2016-05-18T01:11:12.888Z,0
2016-05-18T01:12:12.781Z,0
2016-05-18T01:13:12.769Z,0
2016-05-18T01:14:12.943Z,0
2016-05-18T01:15:12.976Z,0
2016-05-18T01:16:12.995Z,0
2016-05-18T01:17:13.013Z,0
2016-05-18T01:18:13.048Z,0
2016-05-18T01:19:12.909Z,0
2016-05-18T01:20:13.085Z,0
2016-05-18T01:21:12.946Z,0
2016-05-18T01:22:12.824Z,0
2016-05-18T01:23:13.670Z,0
2016-05-18T01:24:27.344Z,0
2016-05-18T01:25:13.035Z,0
2016-05-18T01:26:13.209Z,0
2016-05-18T01:27:13.228Z,0
2016-05-18T01:28:13.278Z,0
2016-05-18T01:29:13.295Z,0
2016-05-18T01:30:13.314Z,0
2016-05-18T01:31:27.503Z,0
2016-05-18T01:32:12.882Z,0
2016-05-18T01:33:13.384Z,0
2016-05-18T01:34:27.575Z,0
2016-05-18T01:35:13.421Z,0
2016-05-18T01:36:13.439Z,0
2016-05-18T01:37:27.645Z,0
2016-05-18T01:38:13.351Z,0
2016-05-18T01:39:13.182Z,0
2016-05-18T01:41:13.391Z,0
2016-05-18T01:42:13.580Z,0
2016-05-18T01:43:13.615Z,0
2016-05-18T01:44:13.446Z,0
2016-05-18T01:45:13.651Z,0
2016-05-18T01:46:13.669Z,0
2016-05-18T01:47:13.360Z,0
2016-05-18T01:48:13.722Z,0
2016-05-18T01:49:13.709Z,0
2016-05-18T01:50:13.759Z,0
2016-05-18T01:51:13.761Z,0
2016-05-18T01:52:13.639Z,0
2016-05-18T01:53:13.845Z,0
2016-05-18T01:54:13.831Z,0
2016-05-18T01:55:13.850Z,0
2016-05-18T01:56:27.900Z,0
2016-05-18T01:57:28.074Z,0
2016-05-18T01:58:13.780Z,0
2016-05-18T01:59:13.939Z,0
2016-05-18T02:00:13.957Z,0
2016-05-18T02:01:28.163Z,0
2016-05-18T02:02:14.010Z,0
2016-05-18T02:03:14.012Z,0
2016-05-18T02:04:14.046Z,0
2016-05-18T02:05:28.252Z,0
2016-05-18T02:06:28.270Z,0
2016-05-18T02:07:14.116Z,0
2016-05-18T02:08:14.275Z,0
2016-05-18T02:09:14.169Z,0
2016-05-18T02:10:14.187Z,0
2016-05-18T02:11:42.409Z,0
2016-05-18T02:12:14.068Z,0
2016-05-18T02:13:14.241Z,0
2016-05-18T02:14:14.277Z,0
2016-05-18T02:15:14.294Z,0
2016-05-18T02:16:14.313Z,0
2016-05-18T02:17:14.346Z,0
2016-05-18T02:18:14.365Z,0
2016-05-18T02:19:14.383Z,0
2016-05-18T02:21:14.263Z,0
2016-05-18T02:22:14.438Z,0
2016-05-18T02:23:28.363Z,0
2016-05-18T02:24:14.506Z,0
2016-05-18T02:25:14.509Z,0
2016-05-18T02:26:14.543Z,0
2016-05-18T02:27:14.561Z,0
2016-05-18T02:28:14.595Z,0
2016-05-18T02:29:14.597Z,0
2016-05-18T02:30:14.304Z,0
2016-05-18T02:31:28.822Z,0
2016-05-18T02:33:14.530Z,0
2016-05-18T02:34:43.080Z,0
2016-05-18T02:35:28.911Z,0
2016-05-18T02:36:14.758Z,0
2016-05-18T02:37:14.775Z,0
2016-05-18T02:38:15.247Z,0
2016-05-18T02:41:14.864Z,0
2016-05-18T02:42:28.914Z,0
2016-05-18T02:43:29.072Z,0
2016-05-18T02:44:14.935Z,0
2016-05-18T02:45:14.796Z,0
2016-05-18T02:46:14.972Z,0
2016-05-18T02:47:14.849Z,0
2016-05-18T02:48:15.008Z,0
2016-05-18T02:49:15.042Z,0
2016-05-18T02:50:15.061Z,0
2016-05-18T02:51:14.938Z,0
2016-05-18T02:53:14.991Z,0
2016-05-18T02:54:14.993Z,0
2016-05-18T02:55:15.167Z,0
2016-05-18T02:56:15.201Z,0
2016-05-18T02:57:15.220Z,0
2016-05-18T02:58:15.254Z,0
2016-05-18T02:59:29.428Z,0
2016-05-18T03:00:15.275Z,0
2016-05-18T03:01:15.293Z,0
2016-05-18T03:02:15.327Z,0
2016-05-18T03:03:15.189Z,0
2016-05-18T03:04:15.364Z,0
2016-05-18T03:05:15.398Z,0
2016-05-18T03:06:15.416Z,0
2016-05-18T03:07:15.434Z,0
2016-05-18T03:08:15.843Z,0
2016-05-18T03:10:43.864Z,0
2016-05-18T03:11:15.366Z,0
2016-05-18T03:12:15.542Z,0
2016-05-18T03:13:15.575Z,0
2016-05-18T03:14:15.265Z,0
2016-05-18T03:15:29.783Z,0
2016-05-18T03:16:15.474Z,5
2016-05-18T03:17:15.649Z,5
2016-05-18T03:18:15.526Z,5
2016-05-18T03:19:43.905Z,5
2016-05-18T03:20:15.719Z,5
2016-05-18T03:21:15.737Z,5
2016-05-18T03:22:15.615Z,5
2016-05-18T03:23:29.664Z,5
2016-05-18T03:24:16.058Z,5
2016-05-18T03:25:15.826Z,10
2016-05-18T03:26:44.204Z,10
2016-05-18T03:27:30.051Z,10
2016-05-18T03:28:15.740Z,10
2016-05-18T03:29:15.759Z,10
2016-05-18T03:30:15.934Z,15
2016-05-18T03:31:30.140Z,15
2016-05-18T03:32:15.845Z,15
2016-05-18T03:33:15.848Z,15
2016-05-18T03:34:15.881Z,15
2016-05-18T03:35:16.041Z,15
2016-05-18T03:36:16.059Z,15
2016-05-18T03:37:16.077Z,15
2016-05-18T03:38:16.456Z,15
2016-05-18T03:39:16.129Z,20
2016-05-18T03:40:30.179Z,20
2016-05-18T03:41:16.025Z,20
2016-05-18T03:42:30.372Z,20
2016-05-18T03:43:30.391Z,20
2016-05-18T03:44:16.237Z,20
2016-05-18T03:45:16.255Z,20
2016-05-18T03:47:16.292Z,20
2016-05-18T03:48:16.326Z,25
2016-05-18T03:49:16.344Z,25
2016-05-18T03:50:16.066Z,25
2016-05-18T03:51:16.380Z,25
2016-05-18T03:52:16.102Z,25
2016-05-18T03:53:16.182Z,30
2016-05-18T03:54:44.827Z,30
2016-05-18T03:55:16.470Z,30
2016-05-18T03:56:16.488Z,30
2016-05-18T03:58:30.728Z,30
2016-05-18T03:59:16.402Z,30
2016-05-18T04:00:30.623Z,30
2016-05-18T04:01:16.454Z,30
2016-05-18T04:02:16.629Z,30
2016-05-18T04:03:16.648Z,30
2016-05-18T04:05:30.872Z,30
2016-05-18T04:06:16.562Z,30
2016-05-18T04:07:16.736Z,35
2016-05-18T04:08:30.958Z,35
2016-05-18T04:09:16.633Z,35
2016-05-18T04:10:16.635Z,30
2016-05-18T04:11:16.809Z,30
2016-05-18T04:12:16.547Z,35
2016-05-18T04:13:30.894Z,35
2016-05-18T04:14:31.067Z,35
2016-05-18T04:15:30.930Z,35
2016-05-18T04:16:16.932Z,35
2016-05-18T04:18:31.157Z,40
2016-05-18T04:19:16.830Z,40
2016-05-18T04:20:17.022Z,40
2016-05-18T04:21:31.071Z,40
2016-05-18T04:22:17.074Z,45
2016-05-18T04:23:31.404Z,45
2016-05-18T04:25:17.129Z,40
2016-05-18T04:26:17.146Z,40
2016-05-18T04:27:31.197Z,45
2016-05-18T04:28:31.371Z,45
2016-05-18T04:29:17.217Z,45
2016-05-18T04:32:17.272Z,55
2016-05-18T04:33:17.150Z,55
2016-05-18T04:34:31.512Z,60
2016-05-18T04:35:17.343Z,60
2016-05-18T04:36:17.362Z,60
2016-05-18T04:37:17.223Z,65
2016-05-18T04:38:32.132Z,65
2016-05-18T04:39:17.432Z,70
2016-05-18T04:40:17.466Z,70
2016-05-18T04:41:17.344Z,70
2016-05-18T04:42:31.674Z,75
2016-05-18T04:43:31.708Z,75
2016-05-18T04:44:17.398Z,75
2016-05-18T04:45:17.573Z,70
2016-05-18T04:46:17.575Z,80
2016-05-18T04:47:17.438Z,70
2016-05-18T04:48:17.502Z,70
2016-05-18T04:49:31.693Z,70
2016-05-18T04:50:31.852Z,75
2016-05-18T04:51:17.699Z,75
2016-05-18T04:52:31.905Z,75
2016-05-18T04:53:17.766Z,75
2016-05-18T04:54:17.769Z,75
2016-05-18T04:55:31.959Z,75
2016-05-18T04:56:17.649Z,80
2016-05-18T04:57:17.823Z,75
2016-05-18T04:58:17.702Z,75
2016-05-18T04:59:17.735Z,85
2016-05-18T05:00:32.082Z,85
2016-05-18T05:01:17.913Z,90
2016-05-18T05:02:17.775Z,95
2016-05-18T05:03:17.653Z,110
2016-05-18T05:04:17.983Z,120
2016-05-18T05:05:17.986Z,120
2016-05-18T05:06:32.192Z,115
2016-05-18T05:07:17.741Z,110
2016-05-18T05:08:18.025Z,95
2016-05-18T05:09:18.091Z,85
2016-05-18T05:10:18.108Z,70
2016-05-18T05:11:18.142Z,65
2016-05-18T05:12:32.333Z,65
2016-05-18T05:13:32.367Z,60
2016-05-18T05:14:18.057Z,65
2016-05-18T05:15:32.403Z,75
2016-05-18T05:16:18.234Z,85
2016-05-18T05:17:18.269Z,105
2016-05-18T05:18:18.131Z,135
2016-05-18T05:19:18.149Z,175
2016-05-18T05:21:32.529Z,290
2016-05-18T05:22:32.422Z,330
2016-05-18T05:23:18.457Z,360
2016-05-18T05:24:32.616Z,425
2016-05-18T05:25:32.633Z,780
2016-05-18T05:26:18.308Z,805
2016-05-18T05:27:32.513Z,880
2016-05-18T05:28:18.517Z,885
2016-05-18T05:29:18.394Z,740
2016-05-18T05:31:32.759Z,445
2016-05-18T05:32:18.606Z,415
2016-05-18T05:33:32.827Z,430
2016-05-18T05:34:32.845Z,455
2016-05-18T05:35:18.676Z,545
2016-05-18T05:36:18.694Z,395
2016-05-18T05:37:18.573Z,405
2016-05-18T05:38:19.168Z,415
2016-05-18T05:39:18.781Z,400
2016-05-18T05:40:18.799Z,355
2016-05-18T05:41:18.817Z,320
2016-05-18T05:42:18.836Z,300
2016-05-18T05:43:33.056Z,300
2016-05-18T05:44:32.919Z,405
2016-05-18T05:45:18.922Z,320
2016-05-18T05:46:33.111Z,345
2016-05-18T05:47:18.817Z,350
2016-05-18T05:48:33.164Z,450
2016-05-18T05:49:18.854Z,605
2016-05-18T05:50:19.029Z,380
2016-05-18T05:51:19.063Z,440
2016-05-18T05:52:19.080Z,965
2016-05-18T05:53:47.474Z,1000
2016-05-18T05:54:18.977Z,1025
2016-05-18T05:55:19.168Z,1020
2016-05-18T05:56:19.171Z,725
2016-05-18T05:57:19.064Z,555
2016-05-18T05:58:19.238Z,450
2016-05-18T05:59:19.256Z,465
2016-05-18T06:00:19.274Z,920
2016-05-18T06:01:19.309Z,1065
2016-05-18T06:02:19.343Z,1105
2016-05-18T06:03:19.345Z,1150
2016-05-18T06:04:19.223Z,1025
2016-05-18T06:05:19.085Z,685
2016-05-18T06:06:19.134Z,1180
2016-05-18T06:07:19.450Z,1075
2016-05-18T06:08:19.328Z,525
2016-05-18T06:09:33.533Z,495
2016-05-18T06:10:19.223Z,810
2016-05-18T06:11:19.554Z,480
2016-05-18T06:12:19.572Z,555
2016-05-18T06:13:19.606Z,435
2016-05-18T06:14:19.639Z,435
2016-05-18T06:15:19.502Z,460
2016-05-18T06:16:19.678Z,450
2016-05-18T06:17:19.711Z,535
2016-05-18T06:18:33.916Z,605
2016-05-18T06:19:19.607Z,615
2016-05-18T06:20:19.641Z,690
2016-05-18T06:21:19.659Z,1230
2016-05-18T06:22:19.833Z,1065
2016-05-18T06:23:20.336Z,880
2016-05-18T06:24:19.730Z,1120
2016-05-18T06:25:34.091Z,1230
2016-05-18T06:26:19.938Z,1295
2016-05-18T06:27:19.972Z,1370
2016-05-18T06:28:19.990Z,1360
2016-05-18T06:29:19.852Z,1495
2016-05-18T06:30:34.230Z,1505
2016-05-18T06:31:19.748Z,1555
2016-05-18T06:32:19.782Z,1550
2016-05-18T06:33:34.145Z,1420
2016-05-18T06:34:20.007Z,1560
2016-05-18T06:35:20.041Z,1390
2016-05-18T06:36:20.215Z,1435
2016-05-18T06:38:20.111Z,1490
2016-05-18T06:39:20.129Z,1495
2016-05-18T06:40:20.320Z,1665
2016-05-18T06:41:34.526Z,1470
2016-05-18T06:42:20.215Z,1570
2016-05-18T06:43:20.092Z,1600
2016-05-18T06:44:34.455Z,1625
2016-05-18T06:45:35.333Z,1640
2016-05-18T06:46:34.680Z,1585
2016-05-18T06:47:20.369Z,1700
2016-05-18T06:48:20.389Z,1775
2016-05-18T06:49:20.578Z,1605
2016-05-18T06:50:20.612Z,1695
2016-05-18T06:51:20.647Z,1815
2016-05-18T06:52:20.680Z,1670
2016-05-18T06:53:34.730Z,1790
2016-05-18T06:54:20.733Z,1805
2016-05-18T06:55:20.766Z,1765
2016-05-18T06:57:20.663Z,1755
2016-05-18T06:58:20.852Z,1735
2016-05-18T06:59:34.918Z,1755
2016-05-18T07:00:20.921Z,1760
2016-05-18T07:01:20.970Z,1765
2016-05-18T07:02:20.832Z,1705
2016-05-18T07:03:35.194Z,1675
2016-05-18T07:04:35.228Z,1705
2016-05-18T07:05:21.074Z,1750
2016-05-18T07:06:35.280Z,1765
2016-05-18T07:07:20.829Z,1755
2016-05-18T07:08:21.692Z,1780
2016-05-18T07:09:21.242Z,1740
2016-05-18T07:10:21.229Z,1760
2016-05-18T07:11:35.465Z,1735
2016-05-18T07:12:21.296Z,1795
2016-05-18T07:13:21.330Z,1880
2016-05-18T07:15:21.398Z,1865
2016-05-18T07:16:21.417Z,1860
2016-05-18T07:17:21.309Z,1835
2016-05-18T07:18:21.344Z,1780
2016-05-18T07:19:21.519Z,1800
2016-05-18T07:20:36.083Z,1830
2016-05-18T07:21:35.789Z,1805
2016-05-18T07:22:21.464Z,1810
2016-05-18T07:23:21.529Z,1745
2016-05-18T07:24:21.688Z,1730
2016-05-18T07:25:21.706Z,1775
2016-05-18T07:26:35.647Z,1810
2016-05-18T07:28:36.043Z,1765
2016-05-18T07:30:21.892Z,1815
2016-05-18T07:31:21.927Z,1775
2016-05-18T07:32:21.663Z,1820
2016-05-18T07:33:21.993Z,1830
2016-05-18T07:34:36.215Z,1730
2016-05-18T07:35:21.905Z,1735
2016-05-18T07:36:21.971Z,1820
2016-05-18T07:37:22.129Z,1795
2016-05-18T07:38:22.304Z,1770
2016-05-18T07:39:22.197Z,1740
2016-05-18T07:40:22.247Z,1765
2016-05-18T07:41:22.124Z,1775
2016-05-18T07:42:22.143Z,1750
2016-05-18T07:43:22.333Z,1785
2016-05-18T07:44:36.804Z,1750
2016-05-18T07:45:22.242Z,1720
2016-05-18T07:46:36.623Z,1725
2016-05-18T07:48:22.500Z,1740
2016-05-18T07:49:22.534Z,1700
2016-05-18T07:50:22.411Z,1630
2016-05-18T07:51:36.495Z,1755
2016-05-18T07:52:22.651Z,1690
2016-05-18T07:53:36.703Z,1705
2016-05-18T07:54:22.547Z,1685
2016-05-18T07:55:22.738Z,1670
2016-05-18T07:56:22.475Z,1705
2016-05-18T07:57:22.805Z,1680
2016-05-18T07:58:22.714Z,1655
2016-05-18T07:59:22.732Z,1705
2016-05-18T08:00:37.567Z,1725
2016-05-18T08:01:37.163Z,1705
2016-05-18T08:02:22.975Z,1670
2016-05-18T08:03:22.853Z,1655
2016-05-18T08:04:22.902Z,1610
2016-05-18T08:05:22.765Z,1490
2016-05-18T08:06:37.316Z,1545
2016-05-18T08:07:23.004Z,1585
2016-05-18T08:08:23.616Z,1580
2016-05-18T08:09:23.072Z,1610
2016-05-18T08:10:23.107Z,1655
2016-05-18T08:11:51.659Z,1650
2016-05-18T08:12:23.330Z,1640
2016-05-18T08:13:37.539Z,1585
2016-05-18T08:15:23.432Z,1475
2016-05-18T08:16:37.515Z,1495
2016-05-18T08:17:23.500Z,1505
2016-05-18T08:18:23.564Z,1530
2016-05-18T08:19:37.758Z,1550
2016-05-18T08:20:38.511Z,1585
2016-05-18T08:21:23.636Z,1565
2016-05-18T08:22:23.529Z,1530
2016-05-18T08:23:23.079Z,220
2016-05-18T08:24:23.472Z,215
2016-05-18T08:25:22.881Z,220
2016-05-18T08:26:22.775Z,165
2016-05-18T08:27:22.964Z,240
2016-05-18T08:29:23.086Z,290
2016-05-18T08:30:23.161Z,230
2016-05-18T08:31:37.470Z,0
2016-05-18T08:32:37.383Z,0
2016-05-18T08:34:23.432Z,235
2016-05-18T08:35:38.468Z,270
2016-05-18T08:36:23.530Z,200
2016-05-18T08:37:23.581Z,25
2016-05-18T08:38:37.838Z,0
2016-05-18T08:40:23.721Z,200
2016-05-18T08:41:23.604Z,130
2016-05-18T08:42:37.839Z,0
2016-05-18T08:44:23.859Z,20
2016-05-18T08:45:23.599Z,50
2016-05-18T08:46:38.140Z,0
2016-05-18T08:47:23.984Z,5
2016-05-18T08:48:38.211Z,0
2016-05-18T08:49:24.054Z,1195
2016-05-18T08:50:23.932Z,1205
2016-05-18T08:51:38.314Z,1165
2016-05-18T08:52:24.174Z,1095
2016-05-18T08:53:24.036Z,1055
2016-05-18T08:54:24.242Z,1055
2016-05-18T08:55:24.105Z,1065
2016-05-18T08:56:24.295Z,1045
2016-05-18T08:57:24.328Z,1005
2016-05-18T08:58:38.583Z,0
2016-05-18T08:59:24.396Z,900
2016-05-18T09:00:24.274Z,865
2016-05-18T09:01:24.308Z,830
2016-05-18T09:02:24.513Z,800
2016-05-18T09:03:24.376Z,755
2016-05-18T09:04:24.566Z,725
2016-05-18T09:05:24.616Z,700
2016-05-18T09:06:24.634Z,690
2016-05-18T09:07:38.873Z,680
2016-05-18T09:08:38.907Z,0
2016-05-18T09:09:24.767Z,660
2016-05-18T09:10:24.785Z,660
2016-05-18T09:11:24.804Z,655
2016-05-18T09:12:24.853Z,650
2016-05-18T09:13:24.903Z,645
2016-05-18T09:14:24.921Z,635
2016-05-18T09:15:24.798Z,640
2016-05-18T09:16:24.989Z,640
2016-05-18T09:17:25.023Z,635
2016-05-18T09:18:25.042Z,630
2016-05-18T09:19:25.090Z,625
2016-05-18T09:20:24.984Z,615
2016-05-18T09:21:25.158Z,615
2016-05-18T09:22:25.036Z,620
2016-05-18T09:23:39.104Z,610
2016-05-18T09:24:25.276Z,605
2016-05-18T09:26:25.313Z,605
2016-05-18T09:27:25.347Z,605
2016-05-18T09:28:25.239Z,595
2016-05-18T09:30:25.463Z,590
2016-05-18T09:31:39.688Z,0
2016-05-18T09:32:39.566Z,0
2016-05-18T09:33:25.566Z,585
2016-05-18T09:34:25.584Z,585
2016-05-18T09:35:25.477Z,590
2016-05-18T09:36:25.527Z,585
2016-05-18T09:37:25.701Z,580
2016-05-18T09:38:39.848Z,575
2016-05-18T09:39:39.804Z,570
2016-05-18T09:40:25.788Z,580
2016-05-18T09:41:25.821Z,570
2016-05-18T09:42:25.871Z,570
2016-05-18T09:43:25.748Z,565
2016-05-18T09:44:25.923Z,555
2016-05-18T09:45:25.942Z,550
2016-05-18T09:46:25.992Z,530
2016-05-18T09:47:25.884Z,550
2016-05-18T09:48:26.075Z,555
2016-05-18T09:49:26.093Z,550
2016-05-18T09:50:25.970Z,545
2016-05-18T09:51:26.145Z,530
2016-05-18T09:52:26.195Z,550
2016-05-18T09:53:26.401Z,545
2016-05-18T09:54:26.278Z,395
2016-05-18T09:56:26.315Z,535
2016-05-18T09:57:26.350Z,520
2016-05-18T09:58:27.289Z,535
2016-05-18T09:59:26.261Z,545
2016-05-18T10:00:27.341Z,535
2016-05-18T10:01:27.360Z,520
2016-05-18T10:02:27.394Z,515
2016-05-18T10:03:27.303Z,515
2016-05-18T10:04:26.571Z,525
2016-05-18T10:05:26.449Z,525
2016-05-18T10:07:41.754Z,505
2016-05-18T10:08:27.347Z,390
2016-05-18T10:09:27.632Z,375
2016-05-18T10:10:40.965Z,400
2016-05-18T10:11:26.809Z,520
2016-05-18T10:13:26.704Z,550
2016-05-18T10:14:27.629Z,550
2016-05-18T10:15:26.773Z,550
2016-05-18T10:16:27.837Z,535
2016-05-18T10:17:26.996Z,535
2016-05-18T10:18:26.562Z,510
2016-05-18T10:19:27.956Z,475
2016-05-18T10:20:27.083Z,510
2016-05-18T10:21:27.117Z,520
2016-05-18T10:22:27.151Z,510
2016-05-18T10:23:27.200Z,505
2016-05-18T10:24:27.203Z,495
2016-05-18T10:25:28.143Z,495
2016-05-18T10:26:41.461Z,490
2016-05-18T10:27:28.195Z,480
2016-05-18T10:28:28.230Z,310
2016-05-18T10:29:28.278Z,450
2016-05-18T10:30:42.331Z,455
2016-05-18T10:31:28.175Z,400
2016-05-18T10:32:28.381Z,465
2016-05-18T10:33:28.399Z,330
2016-05-18T10:34:42.608Z,455
2016-05-18T10:35:28.452Z,465
2016-05-18T10:36:41.785Z,465
2016-05-18T10:37:27.316Z,460
2016-05-18T10:38:28.977Z,445
2016-05-18T10:39:27.680Z,450
2016-05-18T10:40:27.558Z,445
2016-05-18T10:41:27.749Z,435
2016-05-18T10:42:42.863Z,445
2016-05-18T10:43:42.882Z,440
2016-05-18T10:44:28.726Z,410
2016-05-18T10:45:28.604Z,300
2016-05-18T10:46:28.824Z,290
2016-05-18T10:47:28.656Z,295
2016-05-18T10:48:28.690Z,305
2016-05-18T10:49:28.880Z,430
2016-05-18T10:50:28.757Z,440
2016-05-18T10:51:28.978Z,435
2016-05-18T10:52:28.810Z,440
2016-05-18T10:53:29.487Z,445
2016-05-18T10:54:29.050Z,435
2016-05-18T10:55:28.912Z,335
2016-05-18T10:56:28.945Z,405
2016-05-18T10:57:29.136Z,420
2016-05-18T10:58:29.170Z,310
2016-05-18T10:59:29.188Z,285
2016-05-18T11:00:29.222Z,295
2016-05-18T11:01:29.084Z,400
2016-05-18T11:02:43.464Z,405
2016-05-18T11:03:29.183Z,415
2016-05-18T11:04:29.342Z,415
2016-05-18T11:05:29.375Z,415
2016-05-18T11:06:29.410Z,415
2016-05-18T11:07:29.428Z,420
2016-05-18T11:08:30.480Z,410
2016-05-18T11:09:29.496Z,420
2016-05-18T11:10:29.513Z,425
2016-05-18T11:12:29.598Z,380
2016-05-18T11:13:29.601Z,370
2016-05-18T11:14:43.840Z,325
2016-05-18T11:15:29.512Z,320
2016-05-18T11:16:29.717Z,310
2016-05-18T11:17:29.737Z,385
2016-05-18T11:18:43.960Z,330
2016-05-18T11:19:29.788Z,330
2016-05-18T11:20:29.665Z,330
2016-05-18T11:21:43.156Z,390
2016-05-18T11:22:29.875Z,385
2016-05-18T11:23:30.458Z,395
2016-05-18T11:24:29.958Z,345
2016-05-18T11:25:29.976Z,355
2016-05-18T11:26:28.948Z,355
2016-05-18T11:27:43.329Z,335
2016-05-18T11:28:29.032Z,320
2016-05-18T11:29:29.190Z,320
2016-05-18T11:30:29.802Z,335
2016-05-18T11:31:30.164Z,325
2016-05-18T11:32:30.183Z,310
2016-05-18T11:35:44.459Z,270
2016-05-18T11:36:30.147Z,265
2016-05-18T11:37:29.446Z,255
2016-05-18T11:38:29.480Z,245
2016-05-18T11:39:29.499Z,240
2016-05-18T11:40:43.722Z,235
2016-05-18T11:41:30.475Z,250
2016-05-18T11:42:44.666Z,245
2016-05-18T11:43:30.527Z,245
2016-05-18T11:44:30.371Z,260
2016-05-18T11:45:30.579Z,275
2016-05-18T11:46:44.770Z,290
2016-05-18T11:47:30.679Z,305
2016-05-18T11:48:30.650Z,345
2016-05-18T11:49:30.525Z,315
2016-05-18T11:50:30.718Z,305
2016-05-18T11:51:30.609Z,300
2016-05-18T11:52:30.802Z,305
2016-05-18T11:53:30.521Z,355
2016-05-18T11:54:30.823Z,300
2016-05-18T11:55:30.698Z,295
2016-05-18T11:56:30.731Z,275
2016-05-18T11:57:45.112Z,260
2016-05-18T11:58:45.114Z,255
2016-05-18T11:59:45.164Z,260
2016-05-18T12:00:45.089Z,260
2016-05-18T12:01:31.028Z,265
2016-05-18T12:02:31.063Z,270
2016-05-18T12:03:30.031Z,320
2016-05-18T12:04:45.303Z,270
2016-05-18T12:05:30.256Z,270
2016-05-18T12:06:30.133Z,270
2016-05-18T12:07:45.405Z,270
2016-05-18T12:08:45.641Z,270
2016-05-18T12:09:31.113Z,265
2016-05-18T12:11:31.275Z,260
2016-05-18T12:12:30.463Z,255
2016-05-18T12:13:31.390Z,245
2016-05-18T12:14:30.561Z,230
2016-05-18T12:15:31.441Z,225
2016-05-18T12:16:31.460Z,220
2016-05-18T12:17:31.337Z,220
2016-05-18T12:18:31.513Z,220
2016-05-18T12:19:30.654Z,225
2016-05-18T12:20:31.423Z,240
2016-05-18T12:21:45.787Z,295
2016-05-18T12:22:30.599Z,310
2016-05-18T12:23:31.931Z,330
2016-05-18T12:24:31.779Z,280
2016-05-18T12:25:30.841Z,340
2016-05-18T12:27:31.614Z,260
2016-05-18T12:28:31.805Z,275
2016-05-18T12:29:31.854Z,245
2016-05-18T12:30:31.856Z,235
2016-05-18T12:31:31.734Z,230
2016-05-18T12:32:31.769Z,225
2016-05-18T12:33:31.958Z,220
2016-05-18T12:34:31.978Z,215
2016-05-18T12:35:31.839Z,210
2016-05-18T12:36:32.044Z,205
2016-05-18T12:37:31.767Z,195
2016-05-18T12:38:32.785Z,180
2016-05-18T12:39:45.990Z,160
2016-05-18T12:41:32.043Z,140
2016-05-18T12:42:32.046Z,135
2016-05-18T12:43:46.266Z,135
2016-05-18T12:45:46.476Z,135
2016-05-18T12:46:46.338Z,135
2016-05-18T12:47:32.041Z,135
2016-05-18T12:48:32.373Z,135
2016-05-18T12:49:32.233Z,135
2016-05-18T12:50:46.614Z,135
2016-05-18T12:51:32.460Z,135
2016-05-18T12:52:46.666Z,135
2016-05-18T12:53:32.401Z,135
2016-05-18T12:54:46.734Z,145
2016-05-18T12:55:46.768Z,150
2016-05-18T12:56:32.440Z,155
2016-05-18T12:57:32.615Z,155
2016-05-18T12:58:32.648Z,155
2016-05-18T12:59:32.511Z,160
2016-05-18T13:00:32.403Z,165
2016-05-18T13:01:32.750Z,165
2016-05-18T13:02:46.787Z,170
2016-05-18T13:03:32.631Z,170
2016-05-18T13:06:32.717Z,160
2016-05-18T13:07:32.892Z,150
2016-05-18T13:08:33.472Z,150
2016-05-18T13:09:47.166Z,145
2016-05-18T13:10:32.978Z,140
2016-05-18T13:11:33.011Z,145
2016-05-18T13:12:33.030Z,140
2016-05-18T13:14:01.426Z,130
2016-05-18T13:14:33.097Z,125
2016-05-18T13:16:32.994Z,110
2016-05-18T13:17:47.358Z,100
2016-05-18T13:18:33.202Z,90
2016-05-18T13:19:47.582Z,85
2016-05-18T13:21:33.273Z,75
2016-05-18T13:22:33.307Z,70
2016-05-18T13:23:41.609Z,65
2016-05-18T13:24:33.453Z,60
2016-05-18T13:25:33.392Z,60
2016-05-18T13:26:33.254Z,60
2016-05-18T13:27:33.461Z,60
2016-05-18T13:29:33.341Z,55
2016-05-18T13:30:33.515Z,55
2016-05-18T13:31:33.549Z,55
2016-05-18T13:32:33.600Z,55
2016-05-18T13:33:33.602Z,55
2016-05-18T13:34:33.651Z,55
2016-05-18T13:35:33.498Z,55
2016-05-18T13:36:33.704Z,55
2016-05-18T13:37:33.722Z,55
2016-05-18T13:38:47.789Z,55
2016-05-18T13:39:33.774Z,55
2016-05-18T13:40:47.827Z,60
2016-05-18T13:41:33.670Z,60
2016-05-18T13:42:47.894Z,65
2016-05-18T13:43:33.879Z,65
2016-05-18T13:45:33.619Z,75
2016-05-18T13:46:33.793Z,80
2016-05-18T13:47:33.827Z,85
2016-05-18T13:48:48.191Z,90
2016-05-18T13:49:34.051Z,95
2016-05-18T13:50:34.069Z,100
2016-05-18T13:51:34.088Z,105
2016-05-18T13:52:33.949Z,110
2016-05-18T13:53:34.687Z,110
2016-05-18T13:55:34.193Z,130
2016-05-18T13:56:34.226Z,135
2016-05-18T13:57:48.434Z,150
2016-05-18T13:58:34.122Z,160
2016-05-18T13:59:34.156Z,165
2016-05-18T14:00:34.175Z,170
2016-05-18T14:01:34.209Z,175
2016-05-18T14:02:34.383Z,190
2016-05-18T14:03:34.417Z,195
2016-05-18T14:04:48.484Z,200
2016-05-18T14:05:34.156Z,205
2016-05-18T14:06:34.487Z,205
2016-05-18T14:07:34.225Z,205
2016-05-18T14:08:34.400Z,195
2016-05-18T14:09:48.747Z,190
2016-05-18T14:10:34.435Z,190
2016-05-18T14:11:34.625Z,190
2016-05-18T14:12:48.678Z,190
2016-05-18T14:13:34.694Z,190
2016-05-18T14:14:34.540Z,195
2016-05-18T14:15:34.574Z,205
2016-05-18T14:16:34.749Z,210
2016-05-18T14:17:34.783Z,215
2016-05-18T14:18:34.645Z,210
2016-05-18T14:19:49.010Z,210
2016-05-18T14:20:49.043Z,210
2016-05-18T14:21:34.887Z,205
2016-05-18T14:22:34.905Z,205
2016-05-18T14:23:35.112Z,200
2016-05-18T14:24:49.149Z,200
2016-05-18T14:25:34.993Z,205
2016-05-18T14:26:35.026Z,205
2016-05-18T14:28:03.266Z,210
2016-05-18T14:28:35.079Z,215
2016-05-18T14:29:49.146Z,220
2016-05-18T14:30:35.131Z,220
2016-05-18T14:31:35.164Z,220
2016-05-18T14:32:35.198Z,220
2016-05-18T14:34:35.235Z,215
2016-05-18T14:35:35.269Z,210
2016-05-18T14:36:49.478Z,205
2016-05-18T14:37:35.321Z,205
2016-05-18T14:38:36.058Z,205
2016-05-18T14:39:35.389Z,205
2016-05-18T14:40:35.408Z,205
2016-05-18T14:41:35.426Z,205
2016-05-18T14:42:35.459Z,205
2016-05-18T14:43:49.683Z,200
2016-05-18T14:44:35.511Z,195
2016-05-18T14:45:35.406Z,190
2016-05-18T14:46:35.408Z,185
2016-05-18T14:48:03.960Z,185
2016-05-18T14:48:35.616Z,185
2016-05-18T14:49:49.684Z,180
2016-05-18T14:50:35.684Z,175
2016-05-18T14:51:49.924Z,175